Terminal Aerodrome Forecast
Issued by NWS

Home | Current Version | Previous Version | Text Only | Print | Product List | Glossary On
Versions: 1 2 3 4 5 6 7 8 9 10 11 12 13 14 15 16 17 18
874
FTUS44 KLZK 272323
TAFPBF
TAF
KPBF 272323Z 2800/2824 13007KT P6SM SCT100
     FM280600 15006KT P6SM SCT100 WS020/19039KT
     FM281500 18010G16KT P6SM BKN025 OVC040 WS020/19044KT
     FM282100 17015G25KT P6SM OVC025=

USA.gov is the U.S. government's official web portal to all federal, state and local government web resources and services.